Big Bear Station Historical Data
Daily Summary for May 17, 2017 Units:  English    Metric   Both
« Previous Day
Next Day »
Daily Weekly Monthly Yearly Custom
  High: Low: Average:
Temperature: 61.5 °F 36.3 °F 48.2 °F
Dew Point: 37.9 °F 22.2 °F 32.1 °F
Humidity: 82 % 26 % 56 %
Wind Speed: 11.9 mph 0.0 mph 4.3 mph
Wind Gust: -999.0 mph - -
Wind:- - West
Pressure: 30.02 in 29.91 in -
Precipitation: 0.00 in    
Historical Graphs
 
 
Tabular Data for May 17, 2017
Time Temperature Dew Point Pressure Wind Wind Speed Wind Gust Humidity Rainfall Rate (Hourly)
00:14 41.5 °F 33.1 °F 30.02 in SSE 1.1 mph -999.0 mph 72 % 0 in
00:30 42.8 °F 32.2 °F 30.01 in NW 3.7 mph -999.0 mph 66 % 0 in
00:45 42.8 °F 32.6 °F 30.01 in Calm   -999.0 mph 67 % 0 in
01:00 43.2 °F 33.4 °F 30.00 in NNE 2.2 mph -999.0 mph 68 % 0 in
01:15 44.1 °F 34.9 °F 30.00 in NW 7.3 mph -999.0 mph 70 % 0 in
01:30 45.1 °F 35.2 °F 29.99 in North 6.8 mph -999.0 mph 68 % 0 in
01:46 44.6 °F 34.3 °F 29.99 in NNW 3.2 mph -999.0 mph 67 % 0 in
02:01 43.9 °F 35.1 °F 29.99 in NNW 3.7 mph -999.0 mph 71 % 0 in
02:16 43.5 °F 35.4 °F 30.00 in NW 2.2 mph -999.0 mph 73 % 0 in
02:31 43.2 °F 36.1 °F 29.99 in Calm   -999.0 mph 76 % 0 in
02:46 44.6 °F 37.5 °F 29.98 in NW 6.3 mph -999.0 mph 76 % 0 in
03:02 44.4 °F 37.3 °F 29.98 in NNW 4.2 mph -999.0 mph 76 % 0 in
03:17 43.7 °F 36.3 °F 29.98 in SE 1.1 mph -999.0 mph 75 % 0 in
03:32 43.5 °F 35.8 °F 29.97 in WSW 2.7 mph -999.0 mph 74 % 0 in
03:47 43.5 °F 35.8 °F 29.98 in NW 4.7 mph -999.0 mph 74 % 0 in
04:03 43.2 °F 35.8 °F 29.98 in NW 2.7 mph -999.0 mph 75 % 0 in
04:18 43.2 °F 35.8 °F 29.97 in West 6.8 mph -999.0 mph 75 % 0 in
04:33 43.5 °F 36.4 °F 29.96 in WNW 8.3 mph -999.0 mph 76 % 0 in
04:49 44.1 °F 37.0 °F 29.97 in West 1.7 mph -999.0 mph 76 % 0 in
05:04 43.2 °F 36.8 °F 29.97 in NW 5.8 mph -999.0 mph 78 % 0 in
05:19 41.5 °F 35.8 °F 29.97 in East 2.7 mph -999.0 mph 80 % 0 in
05:35 41.2 °F 36.1 °F 29.97 in NW 2.2 mph -999.0 mph 82 % 0 in
05:50 42.1 °F 36.7 °F 29.97 in NW 6.3 mph -999.0 mph 81 % 0 in
06:05 42.6 °F 36.5 °F 29.97 in WNW 1.7 mph -999.0 mph 79 % 0 in
06:20 42.8 °F 36.1 °F 29.96 in NW 4.7 mph -999.0 mph 77 % 0 in
06:35 43.0 °F 36.0 °F 29.97 in NW 7.8 mph -999.0 mph 76 % 0 in
06:51 43.2 °F 36.1 °F 29.96 in NW 9.9 mph -999.0 mph 76 % 0 in
07:06 43.9 °F 35.8 °F 29.97 in West 4.2 mph -999.0 mph 73 % 0 in
07:21 44.2 °F 36.4 °F 29.97 in NW 3.2 mph -999.0 mph 74 % 0 in
07:37 44.8 °F 36.3 °F 29.97 in ESE 3.7 mph -999.0 mph 72 % 0 in
07:52 45.5 °F 36.3 °F 29.97 in WNW 4.2 mph -999.0 mph 70 % 0 in
08:07 46.4 °F 36.4 °F 29.97 in NNW 3.2 mph -999.0 mph 68 % 0 in
08:22 47.8 °F 36.6 °F 29.97 in East 6.3 mph -999.0 mph 65 % 0 in
08:37 48.2 °F 36.6 °F 29.97 in WNW 4.2 mph -999.0 mph 64 % 0 in
08:53 48.7 °F 36.7 °F 29.97 in WNW 2.2 mph -999.0 mph 63 % 0 in
09:08 49.6 °F 37.9 °F 29.97 in NW 8.3 mph -999.0 mph 64 % 0 in
09:24 50.0 °F 37.5 °F 29.97 in NNW 7.3 mph -999.0 mph 62 % 0 in
09:39 50.7 °F 36.9 °F 29.97 in NNW 2.7 mph -999.0 mph 59 % 0 in
09:55 51.6 °F 35.5 °F 29.96 in WNW 4.7 mph -999.0 mph 54 % 0 in
10:10 52.5 °F 36.8 °F 29.96 in NNW 6.3 mph -999.0 mph 55 % 0 in
10:25 53.1 °F 36.4 °F 29.97 in NNW 5.3 mph -999.0 mph 53 % 0 in
10:41 52.7 °F 35.1 °F 29.97 in NNW 5.8 mph -999.0 mph 51 % 0 in
10:56 54.9 °F 37.1 °F 29.96 in WNW 5.8 mph -999.0 mph 51 % 0 in
11:11 55.9 °F 35.4 °F 29.96 in NNE 3.7 mph -999.0 mph 46 % 0 in
11:27 56.3 °F 32.9 °F 29.95 in NNW 5.8 mph -999.0 mph 41 % 0 in
11:42 57.0 °F 33.5 °F 29.96 in NNW 4.2 mph -999.0 mph 41 % 0 in
11:58 59.4 °F 34.4 °F 29.96 in WNW 6.3 mph -999.0 mph 39 % 0 in
12:13 57.9 °F 34.3 °F 29.96 in NW 4.7 mph -999.0 mph 41 % 0 in
12:28 59.5 °F 31.1 °F 29.97 in North 5.8 mph -999.0 mph 34 % 0 in
12:43 60.3 °F 31.1 °F 29.95 in NNW 6.8 mph -999.0 mph 33 % 0 in
12:59 58.8 °F 35.8 °F 29.96 in North 5.8 mph -999.0 mph 42 % 0 in
13:14 61.3 °F 31.2 °F 29.96 in NW 5.3 mph -999.0 mph 32 % 0 in
13:44 60.3 °F 34.6 °F 29.96 in South 1.1 mph -999.0 mph 38 % 0 in
14:00 60.3 °F 30.3 °F 29.95 in WNW 5.8 mph -999.0 mph 32 % 0 in
14:15 61.5 °F 32.1 °F 29.95 in NNW 4.7 mph -999.0 mph 33 % 0 in
14:30 61.2 °F 30.3 °F 29.94 in NNW 4.7 mph -999.0 mph 31 % 0 in
14:45 59.7 °F 31.3 °F 29.94 in NNW 5.8 mph -999.0 mph 34 % 0 in
15:00 61.0 °F 29.3 °F 29.94 in NW 4.2 mph -999.0 mph 30 % 0 in
15:16 60.4 °F 30.4 °F 29.94 in NNE 6.3 mph -999.0 mph 32 % 0 in
15:31 59.2 °F 26.9 °F 29.94 in NNW 6.3 mph -999.0 mph 29 % 0 in
15:47 59.2 °F 31.6 °F 29.94 in NNW 5.3 mph -999.0 mph 35 % 0 in
16:17 56.7 °F 27.9 °F 29.93 in West 6.8 mph -999.0 mph 33 % 0 in
16:32 59.5 °F 29.6 °F 29.93 in NNW 6.8 mph -999.0 mph 32 % 0 in
16:48 58.6 °F 25.6 °F 29.92 in NNW 7.8 mph -999.0 mph 28 % 0 in
17:04 58.8 °F 24.0 °F 29.92 in NNE 5.3 mph -999.0 mph 26 % 0 in
17:19 56.5 °F 23.8 °F 29.93 in NNW 5.3 mph -999.0 mph 28 % 0 in
17:34 54.9 °F 25.6 °F 29.92 in NNW 10.4 mph -999.0 mph 32 % 0 in
17:50 54.0 °F 27.6 °F 29.92 in NW 8.9 mph -999.0 mph 36 % 0 in
18:05 52.3 °F 28.1 °F 29.92 in NW 11.9 mph -999.0 mph 39 % 0 in
18:20 50.9 °F 28.0 °F 29.91 in NNW 11.4 mph -999.0 mph 41 % 0 in
18:36 50.4 °F 32.5 °F 29.91 in NW 8.3 mph -999.0 mph 50 % 0 in
18:51 50.0 °F 32.6 °F 29.92 in NNW 4.2 mph -999.0 mph 51 % 0 in
19:06 48.6 °F 28.2 °F 29.94 in NW 6.8 mph -999.0 mph 45 % 0 in
19:21 45.7 °F 26.6 °F 29.94 in NNW 5.8 mph -999.0 mph 47 % 0 in
19:36 45.3 °F 24.1 °F 29.94 in NE 1.7 mph -999.0 mph 43 % 0 in
19:52 43.5 °F 22.5 °F 29.95 in SSW 2.7 mph -999.0 mph 43 % 0 in
20:07 43.2 °F 22.2 °F 29.95 in Calm   -999.0 mph 43 % 0 in
20:22 43.2 °F 28.1 °F 29.96 in WNW 2.7 mph -999.0 mph 55 % 0 in
20:37 42.1 °F 25.7 °F 29.96 in Calm   -999.0 mph 52 % 0 in
20:52 41.0 °F 25.6 °F 29.96 in Calm   -999.0 mph 54 % 0 in
21:08 40.5 °F 26.5 °F 29.96 in SSW 2.2 mph -999.0 mph 57 % 0 in
21:23 40.3 °F 26.7 °F 29.96 in Calm   -999.0 mph 58 % 0 in
21:38 39.9 °F 26.7 °F 29.97 in Calm   -999.0 mph 59 % 0 in
21:53 39.6 °F 27.6 °F 29.97 in Calm   -999.0 mph 62 % 0 in
22:08 39.2 °F 27.3 °F 29.98 in South 1.1 mph -999.0 mph 62 % 0 in
22:24 38.3 °F 26.4 °F 29.98 in Calm   -999.0 mph 62 % 0 in
22:39 37.4 °F 26.3 °F 29.99 in SSE 1.1 mph -999.0 mph 64 % 0 in
22:54 37.0 °F 26.3 °F 29.99 in Calm   -999.0 mph 65 % 0 in
23:09 36.9 °F 27.0 °F 29.99 in Calm   -999.0 mph 67 % 0 in
23:25 36.5 °F 26.9 °F 29.99 in Calm   -999.0 mph 68 % 0 in
23:40 36.5 °F 27.6 °F 29.99 in SSE 1.7 mph -999.0 mph 70 % 0 in
23:55 36.3 °F 27.5 °F 29.99 in Calm   -999.0 mph 70 % 0 in
Big Bear CA Weather
Compliments of Weather Underground - 1.5 mb